Terminal Aerodrome Forecast
Issued by NWS

Home | Current Version | Previous Version | Text Only | Print | Product List | Glossary On
Versions: 1 2 3 4 5 6 7 8 9 10 11 12 13
605
FTUS45 KTFX 051127
TAFBZN
TAF
KBZN 051127Z 0512/0612 16006KT P6SM BKN180
     FM051800 22008KT P6SM BKN180
     FM060900 29012KT P6SM VCSH BKN050=

USA.gov is the U.S. government's official web portal to all federal, state and local government web resources and services.